Time;durP1;ratioP1;P1;durP2;ratioP2;P2;SDS_P1;SDS_P2;PMS_P1;PMS_P2;Temp;Humidity;BMP_temperature;BMP_pressure;BME280_temperature;BME280_humidity;BME280_pressure;Samples;Min_cycle;Max_cycle;Signal;HPM_P1;HPM_P2
2023/04/02 00:00:10;;;;;;;0.10;0.10;;;;;;;3.94;81.64;100793.84;5027364;28;20029;-68
2023/04/02 00:02:53;;;;;;;0.30;0.30;;;;;;;3.97;81.87;100808.44;5023947;28;20122;-69
2023/04/02 00:05:33;;;;;;;0.57;0.43;;;;;;;4.03;82.15;100812.50;5020392;28;20030;-69
2023/04/02 00:08:18;;;;;;;0.22;0.22;;;;;;;3.87;81.71;100806.03;5026635;28;20068;-69
2023/04/02 00:10:49;;;;;;;1.33;0.57;;;;;;;3.92;82.10;100816.53;5024174;28;20022;-69
2023/04/02 00:13:14;;;;;;;0.40;0.40;;;;;;;3.88;82.15;100826.25;4997437;28;20051;-69
2023/04/02 00:15:45;;;;;;;0.65;0.40;;;;;;;4.00;81.90;100829.91;5028278;28;20120;-69
2023/04/02 00:18:17;;;;;;;0.45;0.30;;;;;;;3.87;81.48;100833.44;5007898;28;20120;-69
2023/04/02 00:21:12;;;;;;;0.17;0.17;;;;;;;3.95;81.78;100829.28;5026733;28;20045;-70
2023/04/02 00:23:41;;;;;;;0.20;0.20;;;;;;;4.10;80.93;100834.19;5012045;28;20397;-70
2023/04/02 00:26:42;;;;;;;0.28;0.28;;;;;;;4.19;80.93;100837.66;5034084;28;20034;-70
2023/04/02 00:29:11;;;;;;;0.30;0.30;;;;;;;4.05;80.67;100840.44;4965230;28;20358;-68
2023/04/02 00:31:43;;;;;;;0.63;0.43;;;;;;;4.21;79.74;100843.47;4996082;28;20379;-69
2023/04/02 00:34:34;;;;;;;0.30;0.30;;;;;;;3.99;80.02;100841.66;5029565;28;20112;-69
2023/04/02 00:37:00;;;;;;;0.30;0.30;;;;;;;4.00;80.52;100853.09;5022089;28;20046;-69
2023/04/02 00:39:29;;;;;;;0.28;0.28;;;;;;;4.17;80.22;100863.84;4997196;28;20057;-68
2023/04/02 00:42:03;;;;;;;0.30;0.30;;;;;;;3.97;80.25;100859.06;4997102;28;20403;-69
2023/04/02 00:44:31;;;;;;;0.35;0.35;;;;;;;4.15;79.64;100874.00;4996082;28;20037;-69
2023/04/02 00:47:03;;;;;;;0.32;0.32;;;;;;;4.11;80.02;100875.72;5003741;28;20071;-69
2023/04/02 00:49:31;;;;;;;;;;;;;;;4.08;80.18;100876.34;5014710;28;20075;-69
2023/04/02 00:52:01;;;;;;;0.22;0.22;;;;;;;4.12;80.42;100877.31;5011586;28;19920;-69
2023/04/02 00:54:32;;;;;;;2.38;0.93;;;;;;;4.03;79.62;100890.56;5013040;28;20040;-69
2023/04/02 00:56:58;;;;;;;0.30;0.30;;;;;;;4.00;79.22;100891.19;5013887;28;20092;-69
2023/04/02 00:59:27;;;;;;;0.65;0.50;;;;;;;4.07;79.65;100885.41;5008737;28;20493;-69
2023/04/02 01:02:17;;;;;;;0.90;0.50;;;;;;;4.15;80.00;100892.66;5008345;28;20379;-69
2023/04/02 01:04:52;;;;;;;0.30;0.30;;;;;;;4.07;80.04;100899.53;5008799;28;20025;-69
2023/04/02 01:07:27;;;;;;;0.30;0.30;;;;;;;4.04;79.94;100899.34;5027237;28;20029;-70
2023/04/02 01:10:10;;;;;;;0.50;0.47;;;;;;;4.00;80.35;100901.84;5006091;28;20120;-69
2023/04/02 01:13:00;;;;;;;0.20;0.20;;;;;;;3.81;81.30;100906.56;5021150;28;20453;-69
2023/04/02 01:15:58;;;;;;;0.22;0.22;;;;;;;3.74;81.66;100905.41;5031361;28;20041;-69
2023/04/02 01:18:57;;;;;;;0.20;0.20;;;;;;;3.89;81.65;100913.81;4982067;28;20069;-69
2023/04/02 01:21:36;;;;;;;0.32;0.32;;;;;;;4.12;80.67;100917.28;4986583;28;20532;-69
2023/04/02 01:24:09;;;;;;;0.22;0.22;;;;;;;4.02;80.47;100928.97;5010232;28;20046;-70
2023/04/02 01:26:48;;;;;;;0.40;0.40;;;;;;;3.98;80.79;100930.66;5009795;28;20034;-68
2023/04/02 01:29:24;;;;;;;0.95;0.45;;;;;;;3.84;81.22;100943.25;5022828;28;20029;-69
2023/04/02 01:32:10;;;;;;;0.30;0.30;;;;;;;3.86;81.23;100941.06;5015490;28;20021;-68
2023/04/02 01:34:37;;;;;;;0.25;0.25;;;;;;;3.88;81.18;100946.88;4953143;28;20035;-69
2023/04/02 01:37:02;;;;;;;1.65;0.80;;;;;;;3.99;80.73;100947.44;4968661;28;20034;-69
2023/04/02 01:40:05;;;;;;;0.40;0.35;;;;;;;3.73;82.05;100960.56;4963147;28;20117;-68
2023/04/02 01:42:59;;;;;;;0.22;0.22;;;;;;;3.77;81.66;100960.72;4970007;28;20137;-69
2023/04/02 01:45:25;;;;;;;0.68;0.40;;;;;;;3.83;82.18;100956.88;4957968;28;20097;-68
2023/04/02 01:47:54;;;;;;;0.32;0.32;;;;;;;4.03;81.34;100959.03;4965453;28;20134;-69
2023/04/02 01:50:35;;;;;;;0.30;0.30;;;;;;;3.88;81.01;100962.06;4954323;28;20066;-70
2023/04/02 01:53:07;;;;;;;;;;;;;;;3.86;81.57;100961.59;4954282;28;20254;-69
2023/04/02 01:55:37;;;;;;;0.70;0.60;;;;;;;3.87;81.55;100965.84;4965715;28;19924;-69
2023/04/02 01:58:03;;;;;;;0.30;0.30;;;;;;;3.89;81.76;100976.97;4956320;28;20051;-69
2023/04/02 02:00:31;;;;;;;0.20;0.20;;;;;;;4.07;81.08;100973.31;4950688;28;20034;-68
2023/04/02 02:02:59;;;;;;;0.30;0.30;;;;;;;4.09;80.82;100985.25;4937855;28;20061;-68
2023/04/02 02:05:25;;;;;;;0.45;0.45;;;;;;;4.15;80.50;100989.38;4951396;28;20608;-69
2023/04/02 02:07:56;;;;;;;0.20;0.20;;;;;;;3.99;81.08;100995.38;4954787;28;20027;-68
2023/04/02 02:10:37;;;;;;;0.20;0.20;;;;;;;3.90;80.84;100991.84;4946268;28;20031;-69
2023/04/02 02:13:02;;;;;;;;;;;;;;;3.84;81.30;100998.38;5024155;28;20060;-69
2023/04/02 02:15:32;;;;;;;0.20;0.20;;;;;;;3.80;81.37;100997.41;5007518;28;19944;-69
2023/04/02 02:18:02;;;;;;;0.30;0.30;;;;;;;3.75;81.69;101000.97;4992329;28;20033;-69
2023/04/02 02:20:28;;;;;;;0.20;0.20;;;;;;;3.62;81.89;100999.91;4996078;28;20036;-69
2023/04/02 02:22:55;;;;;;;0.30;0.30;;;;;;;3.64;81.82;101003.06;5009252;28;20562;-69
2023/04/02 02:25:25;;;;;;;0.40;0.40;;;;;;;3.77;82.04;101014.00;5013119;28;20037;-69
2023/04/02 02:27:54;;;;;;;0.30;0.30;;;;;;;3.58;82.06;101016.81;4993759;28;20033;-69
2023/04/02 02:30:26;;;;;;;0.20;0.20;;;;;;;3.72;82.00;101014.13;5023494;28;20034;-68
2023/04/02 02:32:57;;;;;;;0.30;0.30;;;;;;;3.71;81.41;101009.88;4996006;28;20344;-69
2023/04/02 02:35:37;;;;;;;0.50;0.50;;;;;;;3.76;81.19;101021.19;5007758;28;20413;-69
2023/04/02 02:38:27;;;;;;;0.30;0.30;;;;;;;3.70;80.98;101035.69;5021583;28;20152;-69
2023/04/02 02:40:59;;;;;;;0.20;0.20;;;;;;;3.79;81.13;101030.47;4989851;28;20041;-69
2023/04/02 02:43:25;;;;;;;0.30;0.30;;;;;;;3.83;80.76;101034.91;5022112;28;20045;-69
2023/04/02 02:45:54;;;;;;;0.20;0.20;;;;;;;3.73;80.21;101045.75;5002385;28;20022;-69
2023/04/02 02:48:35;;;;;;;0.20;0.20;;;;;;;3.76;80.50;101039.03;5003013;28;20061;-69
2023/04/02 02:51:04;;;;;;;;;;;;;;;3.93;80.16;101050.63;5014786;28;20079;-69
2023/04/02 02:53:29;;;;;;;0.30;0.30;;;;;;;3.91;79.99;101052.03;4995571;28;19917;-69
2023/04/02 02:55:59;;;;;;;0.25;0.25;;;;;;;3.77;79.78;101054.72;5008535;28;20402;-68
2023/04/02 02:58:31;;;;;;;0.20;0.20;;;;;;;3.73;79.98;101061.75;5010610;28;20033;-69
2023/04/02 03:01:17;;;;;;;0.32;0.32;;;;;;;3.73;79.71;101069.72;4994142;28;20174;-69
2023/04/02 03:03:44;;;;;;;0.70;0.70;;;;;;;3.75;80.21;101074.75;5006071;28;20041;-69
2023/04/02 03:06:19;;;;;;;0.20;0.20;;;;;;;3.66;80.12;101074.66;4993013;28;20044;-69
2023/04/02 03:08:56;;;;;;;0.75;0.52;;;;;;;3.69;80.40;101087.38;5004186;28;20112;-69
2023/04/02 03:11:45;;;;;;;0.30;0.30;;;;;;;3.68;80.09;101089.25;5012604;28;20033;-69
2023/04/02 03:14:43;;;;;;;0.28;0.28;;;;;;;3.82;79.91;101096.44;5012782;28;20029;-69
2023/04/02 03:17:22;;;;;;;0.28;0.28;;;;;;;3.99;78.96;101093.94;5002745;28;20029;-68
2023/04/02 03:20:05;;;;;;;0.20;0.20;;;;;;;3.91;78.51;101098.09;5009896;28;20037;-68
2023/04/02 03:23:11;;;;;;;0.20;0.20;;;;;;;3.88;79.04;101105.88;5004095;28;20037;-68
2023/04/02 03:25:42;;;;;;;0.38;0.38;;;;;;;3.84;78.96;101107.56;4995513;28;20458;-68
2023/04/02 03:28:16;;;;;;;0.20;0.20;;;;;;;3.77;79.04;101110.66;5011052;28;20036;-68
2023/04/02 03:31:12;;;;;;;0.20;0.20;;;;;;;3.75;79.12;101120.81;5029804;28;20079;-68
2023/04/02 03:33:47;;;;;;;0.20;0.20;;;;;;;3.71;79.20;101121.69;5001724;28;20045;-69
2023/04/02 03:36:21;;;;;;;0.30;0.30;;;;;;;3.93;78.41;101129.78;5012969;28;20408;-68
2023/04/02 03:38:54;;;;;;;0.30;0.30;;;;;;;3.65;78.84;101134.31;5010471;28;20112;-69
2023/04/02 03:41:23;;;;;;;0.25;0.25;;;;;;;3.68;79.25;101134.53;5015247;28;20401;-69
2023/04/02 03:43:53;;;;;;;0.20;0.20;;;;;;;3.76;78.97;101151.66;5015564;28;20100;-68
2023/04/02 03:46:29;;;;;;;0.50;0.40;;;;;;;3.90;78.45;101151.66;5029226;28;20434;-68
2023/04/02 03:49:35;;;;;;;0.32;0.32;;;;;;;3.66;78.55;101142.00;5010124;28;20296;-69
2023/04/02 03:52:13;;;;;;;0.13;0.13;;;;;;;3.58;79.13;101156.00;5000721;28;20045;-68
2023/04/02 03:54:41;;;;;;;0.30;0.30;;;;;;;3.76;78.57;101156.19;5020050;28;20065;-68
2023/04/02 03:57:29;;;;;;;0.20;0.20;;;;;;;3.68;78.97;101165.66;5018495;28;20091;-69
2023/04/02 04:00:13;;;;;;;0.30;0.30;;;;;;;3.62;79.03;101172.97;4997338;28;20145;-69
2023/04/02 04:02:48;;;;;;;0.20;0.20;;;;;;;3.68;78.93;101163.81;5020690;28;20250;-69
2023/04/02 04:05:48;;;;;;;0.10;0.10;;;;;;;3.44;79.71;101181.06;5016238;28;20037;-69
2023/04/02 04:08:19;;;;;;;0.47;0.40;;;;;;;3.47;79.73;101183.09;5016132;28;20077;-68
2023/04/02 04:10:51;;;;;;;0.30;0.30;;;;;;;3.66;78.63;101186.47;5018444;28;20057;-69
2023/04/02 04:13:23;;;;;;;0.35;0.35;;;;;;;3.68;78.30;101184.31;4996998;28;20035;-68
2023/04/02 04:15:53;;;;;;;0.10;0.10;;;;;;;3.56;78.91;101194.69;4997795;28;20041;-69
2023/04/02 04:18:55;;;;;;;0.20;0.20;;;;;;;3.48;78.94;101198.78;5016650;28;20029;-68
2023/04/02 04:21:37;;;;;;;0.40;0.40;;;;;;;3.39;79.31;101199.75;5002006;28;20037;-68
2023/04/02 04:24:27;;;;;;;0.10;0.10;;;;;;;3.44;79.19;101200.47;5007648;28;20033;-69
2023/04/02 04:27:08;;;;;;;0.95;0.55;;;;;;;3.56;78.79;101205.31;5003449;28;20486;-69
2023/04/02 04:29:58;;;;;;;1.38;0.35;;;;;;;3.55;78.64;101220.50;5008968;28;20029;-69
2023/04/02 04:32:37;;;;;;;0.20;0.20;;;;;;;3.62;78.31;101223.56;4990351;28;20037;-69
2023/04/02 04:35:14;;;;;;;0.10;0.10;;;;;;;3.66;78.30;101223.75;5012418;28;20021;-68
2023/04/02 04:37:43;;;;;;;0.25;0.25;;;;;;;3.82;77.94;101230.38;5006347;28;20068;-69
2023/04/02 04:40:27;;;;;;;0.30;0.30;;;;;;;3.86;77.89;101235.91;5006439;28;20510;-69
2023/04/02 04:43:02;;;;;;;0.32;0.22;;;;;;;3.91;77.60;101239.25;5011433;28;20128;-69
2023/04/02 04:45:43;;;;;;;0.20;0.20;;;;;;;3.90;77.20;101247.56;5010370;28;20026;-69
2023/04/02 04:48:16;;;;;;;9.45;0.57;;;;;;;3.85;77.52;101255.66;5008347;28;20498;-69
2023/04/02 04:50:53;;;;;;;0.20;0.20;;;;;;;3.84;78.13;101252.19;4992131;28;20041;-68
2023/04/02 04:53:25;;;;;;;0.30;0.30;;;;;;;3.66;78.67;101264.50;5008207;28;20029;-69
2023/04/02 04:55:55;;;;;;;0.80;0.50;;;;;;;3.67;78.88;101263.41;5008351;28;20413;-69
2023/04/02 04:58:30;;;;;;;0.30;0.30;;;;;;;3.83;78.40;101271.94;5013692;28;20029;-69
2023/04/02 05:01:12;;;;;;;0.22;0.22;;;;;;;4.02;77.85;101277.97;5004792;28;20387;-69
2023/04/02 05:03:46;;;;;;;;;;;;;;;4.05;77.45;101274.69;5013209;28;20025;-68
2023/04/02 05:06:22;;;;;;;0.30;0.30;;;;;;;3.97;78.02;101293.25;5001058;28;19921;-68
2023/04/02 05:08:49;;;;;;;0.40;0.40;;;;;;;4.07;77.83;101290.38;5010209;28;20025;-68
2023/04/02 05:11:31;;;;;;;0.30;0.30;;;;;;;4.06;77.74;101294.16;4994944;28;20506;-69
2023/04/02 05:13:59;;;;;;;;;;;;;;;3.95;78.03;101304.19;5013098;28;20033;-69
2023/04/02 05:16:34;;;;;;;0.40;0.20;;;;;;;3.91;78.09;101310.41;5006073;28;19968;-69
2023/04/02 05:19:07;;;;;;;0.20;0.20;;;;;;;3.81;78.54;101306.06;5012461;28;20052;-68
2023/04/02 05:21:42;;;;;;;0.45;0.30;;;;;;;3.94;78.54;101305.28;5009665;28;20026;-69
2023/04/02 05:24:24;;;;;;;0.25;0.25;;;;;;;3.90;78.65;101303.50;5005588;28;20026;-69
2023/04/02 05:26:52;;;;;;;0.38;0.38;;;;;;;3.96;78.68;101316.44;5028424;28;20056;-69
2023/04/02 05:29:26;;;;;;;0.40;0.40;;;;;;;4.00;78.66;101321.97;5011747;28;20379;-69
2023/04/02 05:32:09;;;;;;;0.13;0.13;;;;;;;4.14;78.43;101336.88;5012168;28;20025;-69
2023/04/02 05:34:41;;;;;;;0.17;0.17;;;;;;;4.20;78.12;101329.59;5009302;28;20033;-68
2023/04/02 05:37:16;;;;;;;0.25;0.25;;;;;;;4.20;77.87;101333.03;5013955;28;20108;-67
2023/04/02 05:39:45;;;;;;;0.30;0.30;;;;;;;4.25;78.01;101340.16;5010738;28;20094;-68
2023/04/02 05:42:20;;;;;;;1.50;0.57;;;;;;;4.36;78.11;101331.66;5006418;28;20025;-68
2023/04/02 05:45:13;;;;;;;0.20;0.20;;;;;;;4.30;78.43;101354.16;5004409;28;20033;-68
2023/04/02 05:47:42;;;;;;;0.20;0.20;;;;;;;4.22;78.61;101351.41;5008219;28;20036;-68
2023/04/02 05:50:24;;;;;;;0.13;0.13;;;;;;;4.20;78.39;101348.25;5007447;28;20038;-68
2023/04/02 05:53:15;;;;;;;0.30;0.30;;;;;;;4.27;78.21;101359.31;5014895;28;20036;-69
2023/04/02 05:56:24;;;;;;;0.22;0.22;;;;;;;4.51;78.17;101360.69;5002681;28;20052;-68
2023/04/02 05:58:59;;;;;;;0.20;0.20;;;;;;;4.35;77.70;101363.94;4979123;28;20124;-68
2023/04/02 06:02:07;;;;;;;0.38;0.22;;;;;;;4.50;77.26;101369.00;5002380;28;20053;-68
2023/04/02 06:04:48;;;;;;;0.32;0.30;;;;;;;4.38;77.20;101366.00;5021878;28;20025;-69
2023/04/02 06:07:24;;;;;;;0.40;0.20;;;;;;;4.44;77.05;101372.84;4999946;28;20391;-69
2023/04/02 06:10:22;;;;;;;0.20;0.20;;;;;;;4.42;77.71;101375.00;4999000;28;20414;-68
2023/04/02 06:12:51;;;;;;;0.20;0.20;;;;;;;4.44;77.31;101378.16;4936490;29;20047;-69
2023/04/02 06:15:21;;;;;;;0.20;0.20;;;;;;;4.59;77.36;101380.53;4929647;29;20046;-68
2023/04/02 06:17:49;;;;;;;0.30;0.30;;;;;;;4.52;77.27;101382.81;4928471;29;20039;-69
2023/04/02 06:20:18;;;;;;;0.28;0.28;;;;;;;4.55;76.91;101390.22;4932612;29;20106;-68
2023/04/02 06:22:48;;;;;;;0.20;0.20;;;;;;;4.64;77.02;101391.13;4932139;29;20382;-69
2023/04/02 06:26:03;;;;;;;0.20;0.20;;;;;;;4.64;76.81;101404.47;4932197;29;20079;-69
2023/04/02 06:28:41;;;;;;;0.20;0.20;;;;;;;4.71;76.43;101396.84;4921298;29;20121;-69
2023/04/02 06:31:17;;;;;;;0.20;0.20;;;;;;;4.88;76.15;101406.94;4953208;28;20198;-69
2023/04/02 06:33:42;;;;;;;0.75;0.30;;;;;;;4.98;75.75;101406.69;4913036;29;20464;-69
2023/04/02 06:36:08;;;;;;;0.20;0.20;;;;;;;5.13;75.43;101415.19;4914909;28;20177;-69
2023/04/02 06:38:36;;;;;;;0.20;0.20;;;;;;;5.20;74.91;101420.13;4923649;29;20043;-69
2023/04/02 06:41:30;;;;;;;0.20;0.20;;;;;;;5.33;75.44;101419.28;4942808;28;20043;-69
2023/04/02 06:44:21;;;;;;;0.32;0.32;;;;;;;5.40;74.31;101425.81;4902385;29;20051;-68
2023/04/02 06:46:58;;;;;;;0.22;0.22;;;;;;;5.81;74.30;101438.22;4922875;29;20539;-69
2023/04/02 06:49:35;;;;;;;0.20;0.20;;;;;;;6.02;72.23;101445.50;4977885;28;20041;-69
2023/04/02 06:52:09;;;;;;;0.20;0.20;;;;;;;6.14;70.99;101451.09;5004799;28;20040;-69
2023/04/02 06:54:35;;;;;;;0.30;0.30;;;;;;;6.27;70.91;101458.25;5011904;28;20045;-69
2023/04/02 06:57:06;;;;;;;0.82;0.25;;;;;;;6.62;70.14;101455.78;5015454;28;20037;-69
2023/04/02 06:59:37;;;;;;;0.10;0.10;;;;;;;6.60;68.75;101464.06;5019540;28;20059;-69
2023/04/02 07:02:23;;;;;;;0.30;0.30;;;;;;;6.81;67.92;101469.69;5008884;28;20124;-70
2023/04/02 07:04:49;;;;;;;0.30;0.30;;;;;;;7.03;67.12;101473.09;5011495;28;20631;-69
2023/04/02 07:07:16;;;;;;;0.25;0.25;;;;;;;7.24;66.20;101482.13;5018300;28;20032;-69
2023/04/02 07:09:43;;;;;;;1.48;0.40;;;;;;;7.27;66.43;101486.88;5012756;28;20127;-68
2023/04/02 07:12:12;;;;;;;0.40;0.40;;;;;;;7.49;65.61;101483.25;5009310;28;20239;-69
2023/04/02 07:14:38;;;;;;;0.25;0.25;;;;;;;7.78;64.93;101494.16;5012353;28;20405;-69
2023/04/02 07:17:04;;;;;;;0.10;0.10;;;;;;;7.88;63.22;101490.38;5006192;28;20029;-69
2023/04/02 07:19:30;;;;;;;0.55;0.20;;;;;;;7.75;61.75;101489.44;5009601;28;20029;-70
2023/04/02 07:21:57;;;;;;;0.20;0.20;;;;;;;7.95;62.39;101490.72;5021682;28;20409;-69
2023/04/02 07:24:27;;;;;;;0.10;0.10;;;;;;;8.07;62.29;101502.38;4998802;28;20037;-69
2023/04/02 07:26:53;;;;;;;0.40;0.40;;;;;;;7.96;61.87;101505.69;4999469;28;20490;-69
2023/04/02 07:29:18;;;;;;;0.15;0.15;;;;;;;8.30;61.35;101502.25;4995081;28;20114;-70
2023/04/02 07:31:44;;;;;;;0.20;0.20;;;;;;;8.27;60.81;101516.28;5028905;28;20029;-70
2023/04/02 07:34:10;;;;;;;0.20;0.20;;;;;;;8.36;60.78;101519.75;5006016;28;21034;-70
2023/04/02 07:36:35;;;;;;;0.20;0.20;;;;;;;8.31;60.27;101517.22;5010581;28;20033;-69
2023/04/02 07:39:02;;;;;;;0.10;0.10;;;;;;;8.35;60.48;101518.97;5001424;28;20051;-69
2023/04/02 07:41:28;;;;;;;1.13;0.43;;;;;;;8.35;62.94;101523.53;4988566;28;20045;-69
2023/04/02 07:43:53;;;;;;;0.28;0.20;;;;;;;8.34;62.76;101528.13;5005274;28;20037;-69
2023/04/02 07:48:48;;;;;;;0.13;0.13;;;;;;;8.08;63.14;101538.03;5016262;28;20075;-57
2023/04/02 07:51:18;;;;;;;0.28;0.25;;;;;;;8.02;62.79;101541.97;5024848;28;20487;-56
2023/04/02 07:53:48;;;;;;;0.10;0.10;;;;;;;7.73;62.64;101550.63;5022608;28;20040;-59
2023/04/02 07:56:15;;;;;;;0.15;0.15;;;;;;;7.71;63.62;101557.41;5015092;28;20103;-56
2023/04/02 07:58:41;;;;;;;0.10;0.10;;;;;;;7.39;63.61;101565.84;4983833;28;20030;-59
2023/04/02 08:01:15;;;;;;;0.20;0.20;;;;;;;7.82;64.87;101567.50;4993597;28;20033;-58
2023/04/02 08:03:41;;;;;;;0.28;0.28;;;;;;;8.31;63.05;101565.50;5000940;28;20113;-57
2023/04/02 08:06:06;;;;;;;0.13;0.13;;;;;;;8.66;62.81;101573.22;5006356;28;20132;-58
2023/04/02 08:08:31;;;;;;;0.17;0.17;;;;;;;9.06;61.05;101569.16;4997274;28;20030;-56
2023/04/02 08:10:57;;;;;;;0.20;0.20;;;;;;;8.95;60.44;101589.44;5008275;28;20038;-57
2023/04/02 08:13:23;;;;;;;0.30;0.28;;;;;;;9.36;58.71;101585.31;4996858;28;20072;-58
2023/04/02 08:15:48;;;;;;;0.35;0.35;;;;;;;9.35;57.53;101592.59;5014200;28;20073;-56
2023/04/02 08:18:14;;;;;;;0.85;0.25;;;;;;;9.05;57.26;101588.28;5011616;28;20028;-58
2023/04/02 08:20:39;;;;;;;0.30;0.25;;;;;;;9.16;57.84;101592.19;4996205;28;20048;-58
2023/04/02 08:23:14;;;;;;;0.25;0.22;;;;;;;9.47;59.00;101590.03;5016455;28;20108;-58
2023/04/02 08:25:40;;;;;;;0.10;0.10;;;;;;;9.81;58.42;101592.50;5010461;28;20033;-58
2023/04/02 08:28:05;;;;;;;3.05;0.20;;;;;;;9.81;56.74;101595.19;5001010;28;20515;-57
2023/04/02 08:30:31;;;;;;;0.22;0.22;;;;;;;9.87;56.65;101604.66;5010114;28;20432;-55
2023/04/02 08:32:56;;;;;;;0.10;0.10;;;;;;;9.57;54.60;101607.69;4998007;28;20077;-60
2023/04/02 08:35:22;;;;;;;2.05;0.40;;;;;;;9.26;55.81;101612.56;4982577;28;20036;-60
2023/04/02 08:37:48;;;;;;;0.20;0.20;;;;;;;9.25;55.83;101625.22;5016997;28;20045;-60
2023/04/02 08:40:33;;;;;;;0.03;0.03;;;;;;;9.50;55.22;101610.09;5018332;28;20040;-57
2023/04/02 08:43:50;;;;;;;1.98;0.20;;;;;;;9.67;55.10;101605.44;5004653;28;20041;-59
2023/04/02 08:46:40;;;;;;;0.13;0.03;;;;;;;9.68;54.98;101612.38;5018743;28;20038;-59
2023/04/02 08:49:15;;;;;;;0.10;0.10;;;;;;;10.24;53.89;101624.53;5016816;28;20021;-59
2023/04/02 08:51:41;;;;;;;0.20;0.20;;;;;;;10.39;51.67;101618.59;5016990;28;20087;-58
2023/04/02 08:54:19;;;;;;;0.10;0.10;;;;;;;10.79;52.46;101622.34;5016353;28;20108;-59
2023/04/02 08:56:54;;;;;;;0.50;0.50;;;;;;;11.03;52.00;101628.91;5006742;28;20098;-58
2023/04/02 08:59:28;;;;;;;0.35;0.30;;;;;;;11.59;51.96;101639.66;5021029;28;20048;-57
2023/04/02 09:01:59;;;;;;;0.10;0.10;;;;;;;11.51;50.80;101642.47;5019567;28;20041;-59
2023/04/02 09:04:25;;;;;;;0.10;0.10;;;;;;;11.88;50.34;101640.59;4996614;28;20085;-58
2023/04/02 09:06:54;;;;;;;0.10;0.10;;;;;;;12.03;49.45;101645.28;5020655;28;20025;-60
2023/04/02 09:09:21;;;;;;;0.35;0.10;;;;;;;12.05;48.52;101651.16;5017890;28;20037;-53
2023/04/02 09:11:59;;;;;;;1.35;0.73;;;;;;;12.22;47.40;101659.00;5017854;28;20117;-58
2023/04/02 09:14:43;;;;;;;0.15;0.15;;;;;;;12.41;47.80;101659.97;5012251;28;20025;-55
2023/04/02 09:17:24;;;;;;;0.35;0.20;;;;;;;12.55;46.64;101665.78;5017804;28;20026;-58
2023/04/02 09:20:01;;;;;;;0.20;0.20;;;;;;;12.74;46.53;101677.91;5014677;28;20037;-56
2023/04/02 09:22:31;;;;;;;0.68;0.10;;;;;;;12.70;47.10;101675.84;5017186;28;20164;-58
2023/04/02 09:25:03;;;;;;;0.20;0.20;;;;;;;12.58;46.10;101685.94;5013745;28;20044;-57
2023/04/02 09:27:34;;;;;;;0.00;0.00;;;;;;;12.62;47.30;101684.88;5017548;28;20386;-54
2023/04/02 09:30:03;;;;;;;0.20;0.20;;;;;;;12.80;46.97;101674.59;5018370;28;20052;-59
2023/04/02 09:32:28;;;;;;;0.10;0.10;;;;;;;13.06;46.26;101685.78;5014277;28;20121;-58
2023/04/02 09:35:14;;;;;;;0.10;0.10;;;;;;;13.09;46.73;101678.88;5012751;28;20120;-60
2023/04/02 09:37:41;;;;;;;0.00;0.00;;;;;;;13.37;48.50;101677.72;5018508;28;20037;-58
2023/04/02 09:40:24;;;;;;;0.73;0.10;;;;;;;13.73;48.15;101684.78;5020690;28;20113;-59
2023/04/02 09:43:12;;;;;;;0.00;0.00;;;;;;;14.28;45.86;101689.97;5006008;28;20041;-61
2023/04/02 09:45:41;;;;;;;0.10;0.10;;;;;;;14.43;45.68;101699.19;5009597;28;20112;-58
2023/04/02 09:48:30;;;;;;;0.43;0.13;;;;;;;14.06;46.40;101703.34;5000945;28;21568;-55
2023/04/02 09:51:20;;;;;;;0.00;0.00;;;;;;;14.04;45.02;101713.75;5006340;28;20049;-58
2023/04/02 09:53:47;;;;;;;0.30;0.20;;;;;;;13.68;42.52;101714.84;5024159;28;20399;-61
2023/04/02 09:56:20;;;;;;;1.98;0.20;;;;;;;13.95;42.96;101713.16;5018198;28;20044;-60
2023/04/02 09:59:20;;;;;;;0.28;0.20;;;;;;;13.89;42.11;101728.09;4992157;28;20045;-60
2023/04/02 10:01:59;;;;;;;0.00;0.00;;;;;;;14.05;42.92;101721.50;5000254;28;20395;-59
2023/04/02 10:04:46;;;;;;;0.10;0.00;;;;;;;14.24;42.36;101713.47;4989284;28;20046;-61
2023/04/02 10:07:31;;;;;;;0.00;0.00;;;;;;;14.71;40.89;101726.13;5000201;28;20075;-60
2023/04/02 10:10:03;;;;;;;0.00;0.00;;;;;;;14.48;41.19;101733.38;4995686;28;20084;-53
2023/04/02 10:12:37;;;;;;;0.00;0.00;;;;;;;14.97;40.90;101737.09;5012766;28;20026;-60
2023/04/02 10:15:05;;;;;;;0.00;0.00;;;;;;;14.63;39.50;101721.69;5010157;28;20372;-60
2023/04/02 10:17:34;;;;;;;0.00;0.00;;;;;;;14.35;40.14;101719.94;4995111;28;20413;-58
2023/04/02 10:20:23;;;;;;;0.00;0.00;;;;;;;14.38;41.71;101735.47;5003582;28;20033;-61
2023/04/02 10:22:49;;;;;;;0.00;0.00;;;;;;;14.54;40.54;101738.16;5011147;28;20038;-56
2023/04/02 10:25:16;;;;;;;0.00;0.00;;;;;;;14.78;40.95;101735.19;5014668;28;20068;-60
2023/04/02 10:27:56;;;;;;;0.00;0.00;;;;;;;14.87;40.26;101743.09;5000818;28;20185;-61
2023/04/02 10:30:34;;;;;;;1.45;0.10;;;;;;;15.01;43.07;101756.97;4999987;28;20076;-58
2023/04/02 10:33:10;;;;;;;0.00;0.00;;;;;;;15.13;42.15;101767.69;5005192;28;20039;-57
2023/04/02 10:36:12;;;;;;;0.75;0.20;;;;;;;14.57;40.16;101771.91;4990278;28;20038;-58
2023/04/02 10:38:45;;;;;;;0.00;0.00;;;;;;;14.63;40.35;101767.78;5012797;28;20093;-54
2023/04/02 10:41:31;;;;;;;0.00;0.00;;;;;;;14.11;41.54;101771.59;4998875;28;20029;-60
2023/04/02 10:44:11;;;;;;;0.65;0.00;;;;;;;14.12;41.68;101775.88;5010399;28;20108;-60
2023/04/02 10:46:48;;;;;;;0.00;0.00;;;;;;;13.97;40.95;101770.47;4996931;28;20067;-59
2023/04/02 10:49:49;;;;;;;0.15;0.10;;;;;;;14.36;42.16;101791.97;5007803;28;20052;-61
2023/04/02 10:52:41;;;;;;;0.10;0.08;;;;;;;14.42;41.27;101793.25;5005878;28;20034;-56
2023/04/02 10:55:18;;;;;;;0.00;0.00;;;;;;;14.79;41.19;101788.28;4999241;28;20033;-53
2023/04/02 10:57:45;;;;;;;0.00;0.00;;;;;;;14.91;42.21;101803.63;5009841;28;20117;-57
2023/04/02 11:00:11;;;;;;;0.03;0.03;;;;;;;15.24;42.81;101795.81;4995458;28;20048;-56
2023/04/02 11:03:00;;;;;;;0.20;0.10;;;;;;;15.46;43.43;101805.19;5011709;28;20042;-54
2023/04/02 11:05:57;;;;;;;0.00;0.00;;;;;;;15.52;42.63;101814.59;5009536;28;20485;-59
2023/04/02 11:08:42;;;;;;;0.03;0.03;;;;;;;15.25;42.32;101805.53;4978020;28;20107;-58
2023/04/02 11:11:15;;;;;;;2.53;0.15;;;;;;;14.80;42.77;101814.28;4994630;28;20724;-57
2023/04/02 11:13:55;;;;;;;0.10;0.10;;;;;;;14.57;43.78;101818.78;5000243;28;20064;-60
2023/04/02 11:16:21;;;;;;;0.15;0.10;;;;;;;14.48;43.27;101820.88;5013182;28;20037;-58
2023/04/02 11:19:19;;;;;;;0.10;0.05;;;;;;;14.48;43.25;101814.69;5016673;28;20473;-58
2023/04/02 11:21:56;;;;;;;0.13;0.10;;;;;;;14.82;42.62;101819.34;5009533;28;20030;-57
2023/04/02 11:24:39;;;;;;;0.00;0.00;;;;;;;14.91;42.73;101817.19;5003095;28;20048;-57
2023/04/02 11:27:08;;;;;;;0.15;0.00;;;;;;;14.67;43.17;101817.47;5060674;23;20203;-61
2023/04/02 11:29:45;;;;;;;0.00;0.00;;;;;;;14.45;42.76;101825.09;5025840;28;20037;-60
2023/04/02 11:32:19;;;;;;;0.00;0.00;;;;;;;14.13;43.16;101831.63;5030211;28;20060;-60
2023/04/02 11:34:47;;;;;;;0.22;0.00;;;;;;;13.57;43.83;101840.97;5018917;28;20120;-58
2023/04/02 11:37:31;;;;;;;0.00;0.00;;;;;;;13.58;43.57;101837.16;5017139;28;20549;-58
2023/04/02 11:40:37;;;;;;;0.17;0.10;;;;;;;13.48;44.41;101843.06;5008795;28;20494;-59
2023/04/02 11:43:34;;;;;;;0.00;0.00;;;;;;;13.17;44.81;101841.03;5020923;28;20052;-59
2023/04/02 11:46:03;;;;;;;0.15;0.08;;;;;;;13.23;45.32;101847.78;5009610;28;20045;-60
2023/04/02 11:48:35;;;;;;;0.30;0.10;;;;;;;13.64;45.09;101843.88;5018975;28;20033;-60
2023/04/02 11:51:24;;;;;;;0.00;0.00;;;;;;;14.10;45.51;101853.22;5008854;28;20025;-61
2023/04/02 11:53:52;;;;;;;0.88;0.00;;;;;;;14.51;44.79;101852.72;5009538;28;20060;-60
2023/04/02 11:56:27;;;;;;;0.00;0.00;;;;;;;14.83;44.57;101862.38;5024171;28;20495;-59
2023/04/02 11:59:20;;;;;;;0.77;0.20;;;;;;;14.82;42.84;101851.88;5017193;28;20447;-61
2023/04/02 12:02:30;;;;;;;4.65;0.00;;;;;;;15.33;43.36;101858.78;5032503;28;20033;-61
2023/04/02 12:05:08;;;;;;;0.15;0.00;;;;;;;15.27;43.00;101871.09;4939106;28;20046;-61
2023/04/02 12:07:58;;;;;;;1.38;0.30;;;;;;;14.86;43.65;101863.59;5023418;28;20055;-61
2023/04/02 12:10:47;;;;;;;0.03;0.03;;;;;;;14.76;44.71;101864.13;5013874;28;20109;-61
2023/04/02 12:13:38;;;;;;;0.52;0.32;;;;;;;14.63;43.68;101871.59;5012953;28;20102;-60
2023/04/02 12:16:07;;;;;;;0.63;0.20;;;;;;;14.63;44.24;101879.75;5010267;28;20439;-62